Time,TemperatureF,DewpointF,PressureIn,WindDirection,WindDirectionDegrees,WindSpeedMPH,WindSpeedGustMPH,Humidity,HourlyPrecipIn,Conditions,Clouds,dailyrainin,SoftwareType,DateUTC
2013-02-06 00:06:00,39.8,39.0,30.05,ENE,75,0.0,1.0,97,0.00,,,0.00,weatherlink.com 1.10,2013-02-06 08:06:00,
2013-02-06 00:21:00,39.5,39.0,30.06,ENE,60,0.0,1.0,97,0.00,,,0.00,weatherlink.com 1.10,2013-02-06 08:21:00,
2013-02-06 00:36:00,39.3,39.0,30.06,East,93,0.0,1.0,97,0.00,,,0.00,weatherlink.com 1.10,2013-02-06 08:36:00,
2013-02-06 00:51:00,39.1,38.0,30.06,East,94,1.0,1.0,97,0.00,,,0.00,weatherlink.com 1.10,2013-02-06 08:51:00,
2013-02-06 01:06:00,39.1,38.0,30.05,NNE,23,0.0,1.0,97,0.00,,,0.00,weatherlink.com 1.10,2013-02-06 09:06:00,
2013-02-06 01:21:00,38.8,38.0,30.05,NE,49,0.0,1.0,97,0.00,,,0.00,weatherlink.com 1.10,2013-02-06 09:21:00,
2013-02-06 01:37:00,38.9,38.0,30.05,NNW,347,1.0,2.0,97,0.00,,,0.00,weatherlink.com 1.10,2013-02-06 09:37:00,
2013-02-06 01:52:00,38.6,38.0,30.05,NE,34,0.0,2.0,97,0.00,,,0.00,weatherlink.com 1.10,2013-02-06 09:52:00,
2013-02-06 02:06:00,38.3,38.0,30.05,NE,42,1.0,2.0,97,0.00,,,0.00,weatherlink.com 1.10,2013-02-06 10:06:00,
2013-02-06 02:21:00,37.9,37.0,30.05,NE,36,0.0,1.0,97,0.00,,,0.00,weatherlink.com 1.10,2013-02-06 10:21:00,
2013-02-06 02:36:00,37.8,37.0,30.05,NE,53,0.0,1.0,97,0.00,,,0.00,weatherlink.com 1.10,2013-02-06 10:36:00,
2013-02-06 02:51:00,37.6,37.0,30.05,NE,51,0.0,1.0,97,0.00,,,0.00,weatherlink.com 1.10,2013-02-06 10:51:00,
2013-02-06 03:06:00,37.2,37.0,30.05,ENE,64,0.0,1.0,97,0.00,,,0.00,weatherlink.com 1.10,2013-02-06 11:06:00,
2013-02-06 03:21:00,37.1,36.0,30.05,NE,40,0.0,2.0,97,0.00,,,0.00,weatherlink.com 1.10,2013-02-06 11:21:00,
2013-02-06 03:36:00,36.9,36.0,30.06,NE,51,0.0,1.0,97,0.00,,,0.00,weatherlink.com 1.10,2013-02-06 11:36:00,
2013-02-06 03:52:00,36.9,36.0,30.05,East,84,0.0,2.0,97,0.00,,,0.00,weatherlink.com 1.10,2013-02-06 11:52:00,
2013-02-06 04:07:00,36.8,36.0,30.05,NE,36,1.0,3.0,97,0.00,,,0.00,weatherlink.com 1.10,2013-02-06 12:07:00,
2013-02-06 04:22:00,36.8,36.0,30.05,NNE,19,0.0,5.0,97,0.00,,,0.00,weatherlink.com 1.10,2013-02-06 12:22:00,
2013-02-06 04:37:00,36.7,36.0,30.05,ENE,74,0.0,1.0,97,0.01,,,0.01,weatherlink.com 1.10,2013-02-06 12:37:00,
2013-02-06 04:52:00,36.9,36.0,30.05,North,359,0.0,2.0,97,0.01,,,0.01,weatherlink.com 1.10,2013-02-06 12:52:00,
2013-02-06 05:07:00,36.5,36.0,30.05,NNE,16,0.0,1.0,97,0.01,,,0.01,weatherlink.com 1.10,2013-02-06 13:07:00,
2013-02-06 05:22:00,36.4,36.0,30.05,ENE,71,0.0,1.0,97,0.01,,,0.01,weatherlink.com 1.10,2013-02-06 13:22:00,
2013-02-06 05:37:00,36.6,36.0,30.05,NE,47,1.0,3.0,97,0.00,,,0.01,weatherlink.com 1.10,2013-02-06 13:37:00,
2013-02-06 05:52:00,36.3,36.0,30.05,NNE,20,0.0,2.0,97,0.00,,,0.01,weatherlink.com 1.10,2013-02-06 13:52:00,
2013-02-06 06:07:00,36.4,36.0,30.06,East,88,1.0,2.0,97,0.00,,,0.01,weatherlink.com 1.10,2013-02-06 14:07:00,
2013-02-06 06:22:00,36.5,36.0,30.06,NE,44,0.0,4.0,97,0.00,,,0.01,weatherlink.com 1.10,2013-02-06 14:22:00,
2013-02-06 06:37:00,36.3,36.0,30.06,NE,47,0.0,4.0,97,0.00,,,0.01,weatherlink.com 1.10,2013-02-06 14:37:00,
2013-02-06 06:52:00,36.2,36.0,30.07,NNW,347,0.0,3.0,97,0.00,,,0.01,weatherlink.com 1.10,2013-02-06 14:52:00,
2013-02-06 07:07:00,36.1,35.0,30.07,North,352,0.0,3.0,97,0.00,,,0.01,weatherlink.com 1.10,2013-02-06 15:07:00,
2013-02-06 07:22:00,36.3,36.0,30.08,NNE,31,1.0,4.0,97,0.00,,,0.01,weatherlink.com 1.10,2013-02-06 15:22:00,
2013-02-06 07:37:00,36.7,36.0,30.08,East,86,0.0,3.0,97,0.00,,,0.01,weatherlink.com 1.10,2013-02-06 15:37:00,
2013-02-06 07:52:00,37.3,37.0,30.09,North,11,0.0,2.0,97,0.00,,,0.01,weatherlink.com 1.10,2013-02-06 15:52:00,
2013-02-06 08:07:00,38.6,38.0,30.09,North,355,0.0,3.0,97,0.00,,,0.01,weatherlink.com 1.10,2013-02-06 16:07:00,
2013-02-06 08:22:00,39.7,39.0,30.09,ENE,77,0.0,1.0,96,0.00,,,0.01,weatherlink.com 1.10,2013-02-06 16:22:00,
2013-02-06 08:37:00,41.1,40.0,30.10,East,82,0.0,1.0,95,0.00,,,0.01,weatherlink.com 1.10,2013-02-06 16:37:00,
2013-02-06 08:52:00,43.2,42.0,30.10,East,94,0.0,1.0,94,0.00,,,0.01,weatherlink.com 1.10,2013-02-06 16:52:00,
2013-02-06 09:08:00,45.1,42.0,30.10,East,89,1.0,2.0,89,0.00,,,0.01,weatherlink.com 1.10,2013-02-06 17:08:00,
2013-02-06 09:22:00,48.2,45.0,30.10,ESE,103,0.0,1.0,88,0.00,,,0.01,weatherlink.com 1.10,2013-02-06 17:22:00,
2013-02-06 09:37:00,49.5,45.0,30.10,West,276,0.0,1.0,83,0.00,,,0.01,weatherlink.com 1.10,2013-02-06 17:37:00,
2013-02-06 09:52:00,51.8,45.0,30.10,SW,219,1.0,2.0,77,0.00,,,0.01,weatherlink.com 1.10,2013-02-06 17:52:00,
2013-02-06 10:08:00,52.8,45.0,30.10,South,179,3.0,4.0,76,0.00,,,0.01,weatherlink.com 1.10,2013-02-06 18:08:00,
2013-02-06 10:23:00,52.1,45.0,30.10,SW,235,4.0,5.0,77,0.00,,,0.01,weatherlink.com 1.10,2013-02-06 18:23:00,
2013-02-06 10:38:00,52.1,46.0,30.10,SW,222,6.0,6.0,79,0.00,,,0.01,weatherlink.com 1.10,2013-02-06 18:38:00,
2013-02-06 10:53:00,52.4,46.0,30.09,WSW,246,1.0,6.0,79,0.00,,,0.01,weatherlink.com 1.10,2013-02-06 18:53:00,
2013-02-06 11:08:00,52.8,46.0,30.08,SSE,157,1.0,6.0,79,0.00,,,0.01,weatherlink.com 1.10,2013-02-06 19:08:00,
2013-02-06 11:23:00,52.7,45.0,30.09,SSW,212,4.0,6.0,75,0.00,,,0.01,weatherlink.com 1.10,2013-02-06 19:23:00,
2013-02-06 11:38:00,53.4,46.0,30.09,SSW,212,2.0,5.0,75,0.00,,,0.01,weatherlink.com 1.10,2013-02-06 19:38:00,
2013-02-06 11:53:00,53.9,45.0,30.08,SE,139,4.0,7.0,72,0.00,,,0.01,weatherlink.com 1.10,2013-02-06 19:53:00,
2013-02-06 12:08:00,53.8,45.0,30.07,WSW,246,3.0,7.0,72,0.00,,,0.01,weatherlink.com 1.10,2013-02-06 20:08:00,
2013-02-06 12:23:00,53.5,45.0,30.07,SW,221,4.0,5.0,73,0.00,,,0.01,weatherlink.com 1.10,2013-02-06 20:23:00,
2013-02-06 12:38:00,54.5,46.0,30.06,WNW,295,1.0,6.0,74,0.00,,,0.01,weatherlink.com 1.10,2013-02-06 20:38:00,
2013-02-06 12:53:00,54.1,46.0,30.06,WNW,302,3.0,7.0,74,0.00,,,0.01,weatherlink.com 1.10,2013-02-06 20:53:00,
2013-02-06 13:08:00,55.3,46.0,30.05,NW,309,3.0,6.0,72,0.00,,,0.01,weatherlink.com 1.10,2013-02-06 21:08:00,
2013-02-06 13:23:00,55.5,46.0,30.05,SSW,205,3.0,7.0,71,0.00,,,0.01,weatherlink.com 1.10,2013-02-06 21:23:00,
2013-02-06 13:38:00,56.4,47.0,30.04,SSE,165,3.0,5.0,72,0.00,,,0.01,weatherlink.com 1.10,2013-02-06 21:38:00,
2013-02-06 13:54:00,57.0,47.0,30.04,SSE,150,2.0,5.0,69,0.00,,,0.01,weatherlink.com 1.10,2013-02-06 21:54:00,
2013-02-06 14:08:00,57.5,47.0,30.03,WSW,239,1.0,5.0,69,0.00,,,0.01,weatherlink.com 1.10,2013-02-06 22:08:00,
2013-02-06 14:23:00,57.6,47.0,30.03,SSE,158,4.0,6.0,67,0.00,,,0.01,weatherlink.com 1.10,2013-02-06 22:23:00,
2013-02-06 14:39:00,57.9,47.0,30.03,WSW,239,2.0,5.0,68,0.00,,,0.01,weatherlink.com 1.10,2013-02-06 22:39:00,
2013-02-06 14:53:00,58.5,45.0,30.03,SE,135,1.0,5.0,62,0.00,,,0.01,weatherlink.com 1.10,2013-02-06 22:53:00,
2013-02-06 15:08:00,58.8,46.0,30.03,South,181,0.0,4.0,62,0.00,,,0.01,weatherlink.com 1.10,2013-02-06 23:08:00,
2013-02-06 15:23:00,59.6,45.0,30.03,SSE,160,2.0,4.0,59,0.00,,,0.01,weatherlink.com 1.10,2013-02-06 23:23:00,
2013-02-06 15:38:00,59.7,44.0,30.03,South,190,1.0,3.0,57,0.00,,,0.01,weatherlink.com 1.10,2013-02-06 23:38:00,
2013-02-06 15:54:00,59.8,45.0,30.02,ESE,103,1.0,3.0,58,0.00,,,0.01,weatherlink.com 1.10,2013-02-06 23:54:00,
2013-02-06 16:09:00,59.5,45.0,30.02,SE,136,2.0,4.0,60,0.00,,,0.01,weatherlink.com 1.10,2013-02-07 00:09:00,
2013-02-06 16:24:00,60.5,46.0,30.02,SSE,150,1.0,2.0,59,0.00,,,0.01,weatherlink.com 1.10,2013-02-07 00:24:00,
2013-02-06 16:39:00,60.1,46.0,30.02,SSE,154,1.0,3.0,59,0.00,,,0.01,weatherlink.com 1.10,2013-02-07 00:39:00,
2013-02-06 16:54:00,59.3,46.0,30.02,ESE,122,2.0,2.0,61,0.00,,,0.01,weatherlink.com 1.10,2013-02-07 00:54:00,
2013-02-06 17:09:00,58.4,46.0,30.03,SSW,200,0.0,2.0,64,0.00,,,0.01,weatherlink.com 1.10,2013-02-07 01:09:00,
2013-02-06 17:24:00,57.0,46.0,30.03,SE,146,0.0,1.0,67,0.00,,,0.01,weatherlink.com 1.10,2013-02-07 01:24:00,
2013-02-06 17:39:00,55.1,46.0,30.03,SE,146,0.0,0.0,71,0.00,,,0.01,weatherlink.com 1.10,2013-02-07 01:39:00,
2013-02-06 17:54:00,52.7,45.0,30.03,SE,136,0.0,1.0,76,0.00,,,0.01,weatherlink.com 1.10,2013-02-07 01:54:00,
2013-02-06 18:09:00,51.6,45.0,30.03,East,86,0.0,2.0,78,0.00,,,0.01,weatherlink.com 1.10,2013-02-07 02:09:00,
2013-02-06 18:24:00,50.0,45.0,30.04,North,359,0.0,2.0,83,0.00,,,0.01,weatherlink.com 1.10,2013-02-07 02:24:00,
2013-02-06 18:39:00,49.1,45.0,30.04,North,358,0.0,1.0,85,0.00,,,0.01,weatherlink.com 1.10,2013-02-07 02:39:00,
2013-02-06 18:54:00,48.2,45.0,30.04,North,360,0.0,1.0,87,0.00,,,0.01,weatherlink.com 1.10,2013-02-07 02:54:00,
2013-02-06 19:09:00,47.4,44.0,30.04,ENE,77,0.0,1.0,88,0.00,,,0.01,weatherlink.com 1.10,2013-02-07 03:09:00,
2013-02-06 19:24:00,46.7,44.0,30.05,East,92,0.0,1.0,89,0.00,,,0.01,weatherlink.com 1.10,2013-02-07 03:24:00,
2013-02-06 19:39:00,46.2,44.0,30.05,East,79,0.0,1.0,91,0.00,,,0.01,weatherlink.com 1.10,2013-02-07 03:39:00,
2013-02-06 19:54:00,46.0,44.0,30.05,NNE,20,1.0,1.0,91,0.00,,,0.01,weatherlink.com 1.10,2013-02-07 03:54:00,
2013-02-06 20:09:00,46.5,44.0,30.06,North,9,0.0,1.0,89,0.00,,,0.01,weatherlink.com 1.10,2013-02-07 04:09:00,
2013-02-06 20:24:00,45.5,43.0,30.07,West,281,0.0,1.0,90,0.00,,,0.01,weatherlink.com 1.10,2013-02-07 04:24:00,
2013-02-06 20:39:00,44.9,43.0,30.07,ENE,71,0.0,1.0,91,0.00,,,0.01,weatherlink.com 1.10,2013-02-07 04:39:00,
2013-02-06 20:54:00,44.8,42.0,30.08,NNE,20,0.0,3.0,91,0.00,,,0.01,weatherlink.com 1.10,2013-02-07 04:54:00,
2013-02-06 21:09:00,44.1,42.0,30.08,North,360,0.0,2.0,91,0.00,,,0.01,weatherlink.com 1.10,2013-02-07 05:09:00,
2013-02-06 21:24:00,43.6,42.0,30.08,NNE,13,0.0,1.0,92,0.00,,,0.01,weatherlink.com 1.10,2013-02-07 05:24:00,
2013-02-06 21:39:00,43.0,41.0,30.08,North,5,1.0,1.0,93,0.00,,,0.01,weatherlink.com 1.10,2013-02-07 05:39:00,
2013-02-06 21:54:00,42.7,41.0,30.08,NNE,13,0.0,1.0,93,0.00,,,0.01,weatherlink.com 1.10,2013-02-07 05:54:00,
2013-02-06 22:09:00,42.4,41.0,30.08,NNE,25,0.0,1.0,94,0.00,,,0.01,weatherlink.com 1.10,2013-02-07 06:09:00,
2013-02-06 22:24:00,41.9,40.0,30.08,NNE,23,0.0,1.0,94,0.00,,,0.01,weatherlink.com 1.10,2013-02-07 06:24:00,
2013-02-06 22:39:00,41.8,41.0,30.08,NNE,23,0.0,1.0,95,0.00,,,0.01,weatherlink.com 1.10,2013-02-07 06:39:00,
2013-02-06 22:55:00,41.7,40.0,30.09,North,6,0.0,1.0,95,0.00,,,0.01,weatherlink.com 1.10,2013-02-07 06:55:00,
2013-02-06 23:09:00,41.4,40.0,30.09,NE,47,0.0,1.0,95,0.00,,,0.01,weatherlink.com 1.10,2013-02-07 07:09:00,
2013-02-06 23:24:00,41.3,40.0,30.09,NNE,20,0.0,1.0,95,0.00,,,0.01,weatherlink.com 1.10,2013-02-07 07:24:00,
2013-02-06 23:40:00,41.4,40.0,30.09,NNE,30,0.0,1.0,95,0.00,,,0.01,weatherlink.com 1.10,2013-02-07 07:40:00,
2013-02-06 23:55:00,40.9,40.0,30.10,NNE,29,0.0,1.0,95,0.00,,,0.01,weatherlink.com 1.10,2013-02-07 07:55:00,